Buckhorn Atmospheric Data: 04/18/2019 Summary  Detailed Graphs  Station List

  Temperature     Wind Precipitation Visibility
Timestamp Air Wet
Bulb
Dew-
point
24-hr
Max
24-hr
Min
Relative
Humidity
Atmospheric
Pressure
Avg
Speed
Avg
Dir
Spot
Speed
Spot
Dir
Max
Speed
Max
Dir
  Rate Situation Start End 1 hr 3 hr 6 hr 12 hr 24 hr   Situation
Date Time °F °F °F °F °F % in Hg mph ° mph ° mph ° Y/N in/hr text Date Time Date Time in in in in in mi text
04/18/2019 12:09 AM 48.02 46.04 44.24 74.12 35.78 86.0 Not Reported 0.00 N 0.00 S 0.45 NE No 0.000 No Precipitation 04/16/2019 11:58 AM 04/16/2019 12:03 PM 0.000 0.000 0.000 0.000 0.000 Not Reported Not Reported
04/18/2019 12:24 AM 47.66 45.86 44.06 74.12 35.78 86.0 Not Reported 1.57 SE 1.12 SE 1.57 SE No 0.000 No Precipitation 04/16/2019 11:58 AM 04/16/2019 12:03 PM 0.000 0.000 0.000 0.000 0.000 Not Reported Not Reported
04/18/2019 12:39 AM 47.12 45.32 43.70 74.12 35.78 87.0 Not Reported 0.89 SE 0.00 NE 2.91 SE No 0.000 No Precipitation 04/16/2019 11:58 AM 04/16/2019 12:03 PM 0.000 0.000 0.000 0.000 0.000 Not Reported Not Reported
04/18/2019 12:54 AM 46.58 44.96 43.34 74.12 35.78 88.0 Not Reported 0.45 SE 0.00 SE 1.34 SE No 0.000 No Precipitation 04/16/2019 11:58 AM 04/16/2019 12:03 PM 0.000 0.000 0.000 0.000 0.000 Not Reported Not Reported
04/18/2019 01:09 AM 46.22 44.78 43.16 74.12 35.78 88.0 Not Reported 0.00 SE 0.00 SE 0.89 S No 0.000 No Precipitation 04/16/2019 11:58 AM 04/16/2019 12:03 PM 0.000 0.000 0.000 0.000 0.000 Not Reported Not Reported
04/18/2019 01:24 AM 46.04 44.60 43.16 74.12 35.78 89.0 Not Reported 0.45 SE 0.00 SE 2.01 SE No 0.000 No Precipitation 04/16/2019 11:58 AM 04/16/2019 12:03 PM 0.000 0.000 0.000 0.000 0.000 Not Reported Not Reported
04/18/2019 01:39 AM 46.04 44.60 43.16 74.12 35.78 89.0 Not Reported 2.46 SE 2.46 SE 1.79 SE No 0.000 No Precipitation 04/16/2019 11:58 AM 04/16/2019 12:03 PM 0.000 0.000 0.000 0.000 0.000 Not Reported Not Reported
04/18/2019 01:54 AM 45.32 44.06 42.62 74.12 35.78 89.0 Not Reported 0.00 N 0.00 N 2.68 SE No 0.000 No Precipitation 04/16/2019 11:58 AM 04/16/2019 12:03 PM 0.000 0.000 0.000 0.000 0.000 Not Reported Not Reported
04/18/2019 02:09 AM 44.96 43.70 42.26 74.12 35.78 90.0 Not Reported 0.67 E 0.22 E 0.00 SW No 0.000 No Precipitation 04/16/2019 11:58 AM 04/16/2019 12:03 PM 0.000 0.000 0.000 0.000 0.000 Not Reported Not Reported
04/18/2019 02:24 AM 44.78 43.52 42.44 74.12 35.78 90.0 Not Reported 0.00 N 0.00 S 2.01 SE No 0.000 No Precipitation 04/16/2019 11:58 AM 04/16/2019 12:03 PM 0.000 0.000 0.000 0.000 0.000 Not Reported Not Reported
04/18/2019 02:39 AM 44.42 43.34 42.08 74.12 35.78 91.0 Not Reported 0.00 E 0.00 SE 0.00 SE No 0.000 No Precipitation 04/16/2019 11:58 AM 04/16/2019 12:03 PM 0.000 0.000 0.000 0.000 0.000 Not Reported Not Reported
04/18/2019 02:54 AM 44.06 42.80 41.72 74.12 35.78 91.0 Not Reported 0.00 N 0.00 E 0.89 SE No 0.000 No Precipitation 04/16/2019 11:58 AM 04/16/2019 12:03 PM 0.000 0.000 0.000 0.000 0.000 Not Reported Not Reported
04/18/2019 03:09 AM 43.88 42.80 41.72 74.12 35.78 91.0 Not Reported 0.00 N 0.00 E 0.89 SE No 0.000 No Precipitation 04/16/2019 11:58 AM 04/16/2019 12:03 PM 0.000 0.000 0.000 0.000 0.000 Not Reported Not Reported
04/18/2019 03:24 AM 43.52 42.62 41.54 74.12 35.78 92.0 Not Reported 0.00 N 0.00 SE 1.12 SE No 0.000 No Precipitation 04/16/2019 11:58 AM 04/16/2019 12:03 PM 0.000 0.000 0.000 0.000 0.000 Not Reported Not Reported
04/18/2019 03:39 AM 43.16 42.26 41.18 74.12 35.78 92.0 Not Reported 0.22 S 0.00 SE 0.89 SE No 0.000 No Precipitation 04/16/2019 11:58 AM 04/16/2019 12:03 PM 0.000 0.000 0.000 0.000 0.000 Not Reported Not Reported
04/18/2019 03:54 AM 42.98 42.08 41.00 74.12 35.78 92.0 Not Reported 0.00 SE 0.00 SE 1.12 SE No 0.000 No Precipitation 04/16/2019 11:58 AM 04/16/2019 12:03 PM 0.000 0.000 0.000 0.000 0.000 Not Reported Not Reported
04/18/2019 04:09 AM 43.16 42.26 41.36 74.12 35.78 93.0 Not Reported 0.89 SE 1.79 SE 0.67 NE No 0.000 No Precipitation 04/16/2019 11:58 AM 04/16/2019 12:03 PM 0.000 0.000 0.000 0.000 0.000 Not Reported Not Reported
04/18/2019 04:24 AM 42.80 41.90 41.00 74.12 35.78 93.0 Not Reported 1.34 E 1.79 SE 0.89 E No 0.000 No Precipitation 04/16/2019 11:58 AM 04/16/2019 12:03 PM 0.000 0.000 0.000 0.000 0.000 Not Reported Not Reported
04/18/2019 04:39 AM 42.44 41.54 40.64 74.12 36.32 93.0 Not Reported 0.45 SE 0.00 SE 1.79 SE No 0.000 No Precipitation 04/16/2019 11:58 AM 04/16/2019 12:03 PM 0.000 0.000 0.000 0.000 0.000 Not Reported Not Reported
04/18/2019 04:54 AM 42.08 41.36 40.46 74.12 36.32 93.0 Not Reported 0.22 E 0.00 E 0.89 SE No 0.000 No Precipitation 04/16/2019 11:58 AM 04/16/2019 12:03 PM 0.000 0.000 0.000 0.000 0.000 Not Reported Not Reported
04/18/2019 05:09 AM 42.26 41.36 40.64 74.12 36.68 93.0 Not Reported 0.67 SE 0.89 SE 2.01 S No 0.000 No Precipitation 04/16/2019 11:58 AM 04/16/2019 12:03 PM 0.000 0.000 0.000 0.000 0.000 Not Reported Not Reported
04/18/2019 05:24 AM 42.26 41.36 40.64 74.12 37.22 93.0 Not Reported 1.79 SE 1.34 SE 1.12 S No 0.000 No Precipitation 04/16/2019 11:58 AM 04/16/2019 12:03 PM 0.000 0.000 0.000 0.000 0.000 Not Reported Not Reported
04/18/2019 05:39 AM 41.72 41.00 40.10 74.12 37.76 93.0 Not Reported 0.00 N 0.67 SE 2.46 E No 0.000 No Precipitation 04/16/2019 11:58 AM 04/16/2019 12:03 PM 0.000 0.000 0.000 0.000 0.000 Not Reported Not Reported
04/18/2019 05:54 AM 41.36 40.64 39.74 74.12 38.30 94.0 Not Reported 0.00 N 0.00 SE 2.01 SE No 0.000 No Precipitation 04/16/2019 11:58 AM 04/16/2019 12:03 PM 0.000 0.000 0.000 0.000 0.000 Not Reported Not Reported
04/18/2019 06:09 AM 41.18 40.46 39.56 74.12 39.02 94.0 Not Reported 0.00 N 0.00 SE 0.89 SE No 0.000 No Precipitation 04/16/2019 11:58 AM 04/16/2019 12:03 PM 0.000 0.000 0.000 0.000 0.000 Not Reported Not Reported
04/18/2019 06:24 AM 41.00 40.28 39.56 74.12 39.56 94.0 Not Reported 0.22 S 0.00 S 0.89 SE No 0.000 No Precipitation 04/16/2019 11:58 AM 04/16/2019 12:03 PM 0.000 0.000 0.000 0.000 0.000 Not Reported Not Reported
04/18/2019 06:39 AM 40.64 39.92 39.20 74.12 39.92 94.0 Not Reported 0.00 E 0.67 E 0.45 NE No 0.000 No Precipitation 04/16/2019 11:58 AM 04/16/2019 12:03 PM 0.000 0.000 0.000 0.000 0.000 Not Reported Not Reported
04/18/2019 06:54 AM 40.46 39.92 39.02 74.12 40.46 94.0 Not Reported 0.22 NE 0.67 NE 2.46 SE No 0.000 No Precipitation 04/16/2019 11:58 AM 04/16/2019 12:03 PM 0.000 0.000 0.000 0.000 0.000 Not Reported Not Reported
04/18/2019 07:09 AM 40.64 39.92 39.20 74.12 40.46 94.0 Not Reported 0.67 SE 1.34 SE 2.01 SE No 0.000 No Precipitation 04/16/2019 11:58 AM 04/16/2019 12:03 PM 0.000 0.000 0.000 0.000 0.000 Not Reported Not Reported
04/18/2019 07:24 AM 40.28 39.56 38.84 74.12 40.28 94.0 Not Reported 0.00 N 0.00 SE 2.24 SE No 0.000 No Precipitation 04/16/2019 11:58 AM 04/16/2019 12:03 PM 0.000 0.000 0.000 0.000 0.000 Not Reported Not Reported
04/18/2019 07:39 AM 40.10 39.38 38.66 74.12 39.92 94.0 Not Reported 0.00 N 0.00 S 0.00 SE No 0.000 No Precipitation 04/16/2019 11:58 AM 04/16/2019 12:03 PM 0.000 0.000 0.000 0.000 0.000 Not Reported Not Reported
04/18/2019 07:54 AM 39.92 39.20 38.48 74.12 39.74 94.0 Not Reported 0.22 S 0.67 S 0.22 N No 0.000 No Precipitation 04/16/2019 11:58 AM 04/16/2019 12:03 PM 0.000 0.000 0.000 0.000 0.000 Not Reported Not Reported
04/18/2019 08:09 AM 39.92 39.38 38.66 74.12 39.74 94.0 Not Reported 0.22 NE 0.67 SE 1.57 SE No 0.000 No Precipitation 04/16/2019 11:58 AM 04/16/2019 12:03 PM 0.000 0.000 0.000 0.000 0.000 Not Reported Not Reported
04/18/2019 08:24 AM 40.10 39.56 38.84 74.12 39.74 94.0 Not Reported 0.00 N 0.00 NE 1.79 E No 0.000 No Precipitation 04/16/2019 11:58 AM 04/16/2019 12:03 PM 0.000 0.000 0.000 0.000 0.000 Not Reported Not Reported
04/18/2019 08:39 AM 40.46 39.92 39.20 74.12 39.74 94.0 Not Reported 0.00 E 0.45 E 0.45 NE No 0.000 No Precipitation 04/16/2019 11:58 AM 04/16/2019 12:03 PM 0.000 0.000 0.000 0.000 0.000 Not Reported Not Reported
04/18/2019 08:54 AM 41.18 40.64 39.92 74.12 39.74 95.0 Not Reported 0.00 NE 0.00 NE 1.34 E No 0.000 No Precipitation 04/16/2019 11:58 AM 04/16/2019 12:03 PM 0.000 0.000 0.000 0.000 0.000 Not Reported Not Reported
04/18/2019 09:09 AM 42.26 41.54 40.82 74.12 39.74 95.0 Not Reported 0.67 E 0.00 E 0.89 E No 0.000 No Precipitation 04/16/2019 11:58 AM 04/16/2019 12:03 PM 0.000 0.000 0.000 0.000 0.000 Not Reported Not Reported
04/18/2019 09:24 AM 43.52 42.98 42.26 74.12 39.74 94.0 Not Reported 1.12 E 1.12 E 1.79 SE No 0.000 No Precipitation 04/16/2019 11:58 AM 04/16/2019 12:03 PM 0.000 0.000 0.000 0.000 0.000 Not Reported Not Reported
04/18/2019 09:39 AM 44.96 44.24 43.52 74.12 39.74 94.0 Not Reported 1.34 SE 1.12 E 1.57 SE No 0.000 No Precipitation 04/16/2019 11:58 AM 04/16/2019 12:03 PM 0.000 0.000 0.000 0.000 0.000 Not Reported Not Reported
04/18/2019 09:54 AM 46.76 46.04 45.14 74.12 39.74 93.0 Not Reported 0.89 SE 0.89 SE 2.01 SE No 0.000 No Precipitation 04/16/2019 11:58 AM 04/16/2019 12:03 PM 0.000 0.000 0.000 0.000 0.000 Not Reported Not Reported
04/18/2019 10:09 AM 48.74 47.48 46.40 74.12 39.74 91.0 Not Reported 1.12 W 0.89 SW 1.57 SE No 0.000 No Precipitation 04/16/2019 11:58 AM 04/16/2019 12:03 PM 0.000 0.000 0.000 0.000 0.000 Not Reported Not Reported
04/18/2019 10:24 AM 53.24 49.28 45.68 74.12 39.74 75.0 Not Reported 3.13 W 3.36 SW 2.68 W No 0.000 No Precipitation 04/16/2019 11:58 AM 04/16/2019 12:03 PM 0.000 0.000 0.000 0.000 0.000 Not Reported Not Reported
04/18/2019 10:39 AM 56.48 49.64 43.52 74.12 39.74 61.0 Not Reported 2.91 W 2.68 N 5.37 W No 0.000 No Precipitation 04/16/2019 11:58 AM 04/16/2019 12:03 PM 0.000 0.000 0.000 0.000 0.000 Not Reported Not Reported
04/18/2019 10:54 AM 58.46 50.54 43.34 74.12 39.74 57.0 Not Reported 4.70 W 5.82 W 3.58 NW No 0.000 No Precipitation 04/16/2019 11:58 AM 04/16/2019 12:03 PM 0.000 0.000 0.000 0.000 0.000 Not Reported Not Reported
04/18/2019 11:09 AM 59.72 51.08 43.34 74.12 39.74 54.0 Not Reported 4.03 W 5.59 W 5.82 W No 0.000 No Precipitation 04/16/2019 11:58 AM 04/16/2019 12:03 PM 0.000 0.000 0.000 0.000 0.000 Not Reported Not Reported
04/18/2019 11:24 AM 61.34 51.80 43.34 74.12 39.74 51.0 Not Reported 6.04 W 6.26 W 6.71 W No 0.000 No Precipitation 04/16/2019 11:58 AM 04/16/2019 12:03 PM 0.000 0.000 0.000 0.000 0.000 Not Reported Not Reported
04/18/2019 11:39 AM 62.96 52.88 44.06 74.12 39.74 49.0 Not Reported 4.25 NW 3.36 NW 6.71 W No 0.000 No Precipitation 04/16/2019 11:58 AM 04/16/2019 12:03 PM 0.000 0.000 0.000 0.000 0.000 Not Reported Not Reported
04/18/2019 11:54 AM 64.04 53.42 44.24 74.12 39.74 48.0 Not Reported 4.25 NW 2.91 W 6.71 NW No 0.000 No Precipitation 04/16/2019 11:58 AM 04/16/2019 12:03 PM 0.000 0.000 0.000 0.000 0.000 Not Reported Not Reported
04/18/2019 12:09 PM 65.66 53.78 43.88 74.12 39.74 45.0 Not Reported 5.14 W 4.92 W 5.14 W No 0.000 No Precipitation 04/16/2019 11:58 AM 04/16/2019 12:03 PM 0.000 0.000 0.000 0.000 0.000 Not Reported Not Reported
04/18/2019 12:24 PM 67.10 54.50 43.88 74.12 39.74 42.0 Not Reported 4.03 W 4.92 W 6.71 W No 0.000 No Precipitation 04/16/2019 11:58 AM 04/16/2019 12:03 PM 0.000 0.000 0.000 0.000 0.000 Not Reported Not Reported
04/18/2019 12:39 PM 68.72 55.40 44.42 74.12 39.74 41.0 Not Reported 6.26 W 5.59 NW 5.14 W No 0.000 No Precipitation 04/16/2019 11:58 AM 04/16/2019 12:03 PM 0.000 0.000 0.000 0.000 0.000 Not Reported Not Reported
04/18/2019 12:54 PM 69.98 55.58 43.70 74.12 39.74 38.0 Not Reported 5.59 W 3.80 W 6.26 NW No 0.000 No Precipitation 04/16/2019 11:58 AM 04/16/2019 12:03 PM 0.000 0.000 0.000 0.000 0.000 Not Reported Not Reported
04/18/2019 01:09 PM 71.78 55.94 42.98 74.12 39.74 35.0 Not Reported 4.70 NW 4.03 NW 6.49 W No 0.000 No Precipitation 04/16/2019 11:58 AM 04/16/2019 12:03 PM 0.000 0.000 0.000 0.000 0.000 Not Reported Not Reported
04/18/2019 01:24 PM 73.22 56.30 42.08 74.12 39.74 32.0 Not Reported 5.59 W 3.80 W 6.49 W No 0.000 No Precipitation 04/16/2019 11:58 AM 04/16/2019 12:03 PM 0.000 0.000 0.000 0.000 0.000 Not Reported Not Reported
04/18/2019 01:39 PM 74.30 56.84 42.62 74.66 39.74 32.0 Not Reported 5.59 NW 1.57 W 7.83 W No 0.000 No Precipitation 04/16/2019 11:58 AM 04/16/2019 12:03 PM 0.000 0.000 0.000 0.000 0.000 Not Reported Not Reported
04/18/2019 01:54 PM 77.18 57.56 41.00 77.18 39.74 27.0 Not Reported 1.79 W 0.89 SE 6.93 W No 0.000 No Precipitation 04/16/2019 11:58 AM 04/16/2019 12:03 PM 0.000 0.000 0.000 0.000 0.000 Not Reported Not Reported
04/18/2019 02:09 PM 77.00 55.22 33.98 77.54 39.74 20.0 Not Reported 1.79 SE 5.82 SE 8.72 SE No 0.000 No Precipitation 04/16/2019 11:58 AM 04/16/2019 12:03 PM 0.000 0.000 0.000 0.000 0.000 Not Reported Not Reported
04/18/2019 02:24 PM 78.26 57.02 38.66 78.26 39.74 24.0 Not Reported 2.91 S 2.46 SE 6.49 SE No 0.000 No Precipitation 04/16/2019 11:58 AM 04/16/2019 12:03 PM 0.000 0.000 0.000 0.000 0.000 Not Reported Not Reported
04/18/2019 02:39 PM 77.90 56.48 37.40 78.98 39.74 23.0 Not Reported 2.24 SE 2.91 SE 5.82 E No 0.000 No Precipitation 04/16/2019 11:58 AM 04/16/2019 12:03 PM 0.000 0.000 0.000 0.000 0.000 Not Reported Not Reported
04/18/2019 02:54 PM 78.80 57.38 39.02 79.16 39.74 24.0 Not Reported 3.36 SE 4.25 SE 7.16 SE No 0.000 No Precipitation 04/16/2019 11:58 AM 04/16/2019 12:03 PM 0.000 0.000 0.000 0.000 0.000 Not Reported Not Reported
04/18/2019 03:09 PM 78.44 57.20 38.84 79.52 39.74 24.0 Not Reported 5.82 SE 6.71 SE 7.61 SE No 0.000 No Precipitation 04/16/2019 11:58 AM 04/16/2019 12:03 PM 0.000 0.000 0.000 0.000 0.000 Not Reported Not Reported
04/18/2019 03:24 PM 78.08 56.84 37.94 79.52 39.74 23.0 Not Reported 2.68 SE 1.79 S 9.17 E No 0.000 No Precipitation 04/16/2019 11:58 AM 04/16/2019 12:03 PM 0.000 0.000 0.000 0.000 0.000 Not Reported Not Reported
04/18/2019 03:39 PM 78.26 56.66 37.04 80.06 39.74 22.0 Not Reported 5.82 SE 2.91 SE 8.72 SE No 0.000 No Precipitation 04/16/2019 11:58 AM 04/16/2019 12:03 PM 0.000 0.000 0.000 0.000 0.000 Not Reported Not Reported
04/18/2019 03:54 PM 79.52 57.56 38.48 80.06 39.74 22.0 Not Reported 4.25 SE 3.58 SE 8.95 SE No 0.000 No Precipitation 04/16/2019 11:58 AM 04/16/2019 12:03 PM 0.000 0.000 0.000 0.000 0.000 Not Reported Not Reported
04/18/2019 04:09 PM 79.70 57.20 37.40 80.06 39.74 21.0 Not Reported 8.05 SE 5.82 SE 8.50 SE No 0.000 No Precipitation 04/16/2019 11:58 AM 04/16/2019 12:03 PM 0.000 0.000 0.000 0.000 0.000 Not Reported Not Reported
04/18/2019 04:24 PM 78.80 57.02 37.94 80.60 39.74 23.0 Not Reported 7.16 SE 4.70 SE 7.61 SE No 0.000 No Precipitation 04/16/2019 11:58 AM 04/16/2019 12:03 PM 0.000 0.000 0.000 0.000 0.000 Not Reported Not Reported
04/18/2019 04:39 PM 79.52 58.28 40.64 80.60 39.74 24.0 Not Reported 3.36 SE 6.26 SE 11.41 SE No 0.000 No Precipitation 04/16/2019 11:58 AM 04/16/2019 12:03 PM 0.000 0.000 0.000 0.000 0.000 Not Reported Not Reported
04/18/2019 04:54 PM 78.98 57.56 39.02 80.60 39.74 23.0 Not Reported 8.05 SE 6.49 SE 7.16 SE No 0.000 No Precipitation 04/16/2019 11:58 AM 04/16/2019 12:03 PM 0.000 0.000 0.000 0.000 0.000 Not Reported Not Reported
04/18/2019 05:09 PM 79.34 58.28 41.00 80.60 39.74 25.0 Not Reported 5.59 SE 2.01 SE 10.51 SE No 0.000 No Precipitation 04/16/2019 11:58 AM 04/16/2019 12:03 PM 0.000 0.000 0.000 0.000 0.000 Not Reported Not Reported
04/18/2019 05:24 PM 78.98 57.74 39.56 80.60 39.74 24.0 Not Reported 5.37 SE 3.36 S 9.40 SE No 0.000 No Precipitation 04/16/2019 11:58 AM 04/16/2019 12:03 PM 0.000 0.000 0.000 0.000 0.000 Not Reported Not Reported
04/18/2019 05:39 PM 78.26 57.56 39.74 80.60 39.74 25.0 Not Reported 4.70 SE 3.80 SE 10.29 SE No 0.000 No Precipitation 04/16/2019 11:58 AM 04/16/2019 12:03 PM 0.000 0.000 0.000 0.000 0.000 Not Reported Not Reported
04/18/2019 05:54 PM 79.88 58.28 40.28 80.60 39.74 24.0 Not Reported 1.79 S 2.24 SW 11.18 SE No 0.000 No Precipitation 04/16/2019 11:58 AM 04/16/2019 12:03 PM 0.000 0.000 0.000 0.000 0.000 Not Reported Not Reported
04/18/2019 06:09 PM 78.26 59.54 45.50 80.60 39.74 31.0 Not Reported 6.93 SE 5.59 SE 7.61 SE No 0.000 No Precipitation 04/16/2019 11:58 AM 04/16/2019 12:03 PM 0.000 0.000 0.000 0.000 0.000 Not Reported Not Reported
04/18/2019 06:24 PM 78.26 57.74 40.46 80.60 39.74 25.0 Not Reported 6.71 SE 4.70 E 10.74 SE No 0.000 No Precipitation 04/16/2019 11:58 AM 04/16/2019 12:03 PM 0.000 0.000 0.000 0.000 0.000 Not Reported Not Reported
04/18/2019 06:39 PM 75.38 57.74 43.52 80.60 39.74 31.0 Not Reported 2.24 SE 2.24 SE 9.40 SE No 0.000 No Precipitation 04/16/2019 11:58 AM 04/16/2019 12:03 PM 0.000 0.000 0.000 0.000 0.000 Not Reported Not Reported
04/18/2019 06:54 PM 77.00 58.46 43.70 80.60 39.74 30.0 Not Reported 5.14 SE 7.61 SE 5.82 SE No 0.000 No Precipitation 04/16/2019 11:58 AM 04/16/2019 12:03 PM 0.000 0.000 0.000 0.000 0.000 Not Reported Not Reported
04/18/2019 07:09 PM 75.20 58.28 45.32 80.60 39.74 34.0 Not Reported 6.04 SE 2.24 E 8.28 SE No 0.000 No Precipitation 04/16/2019 11:58 AM 04/16/2019 12:03 PM 0.000 0.000 0.000 0.000 0.000 Not Reported Not Reported
04/18/2019 07:24 PM 73.76 57.92 45.50 80.60 39.74 36.0 Not Reported 4.47 SE 4.03 SE 8.95 SE No 0.000 No Precipitation 04/16/2019 11:58 AM 04/16/2019 12:03 PM 0.000 0.000 0.000 0.000 0.000 Not Reported Not Reported
04/18/2019 07:39 PM 71.78 57.56 46.94 80.60 39.74 41.0 Not Reported 2.01 SE 2.24 SE 6.49 SE No 0.000 No Precipitation 04/16/2019 11:58 AM 04/16/2019 12:03 PM 0.000 0.000 0.000 0.000 0.000 Not Reported Not Reported
04/18/2019 07:54 PM 70.70 57.38 47.12 80.60 39.74 42.0 Not Reported 2.68 SE 2.91 SE 5.82 SE No 0.000 No Precipitation 04/16/2019 11:58 AM 04/16/2019 12:03 PM 0.000 0.000 0.000 0.000 0.000 Not Reported Not Reported
04/18/2019 08:09 PM 68.36 57.02 48.56 80.60 39.74 49.0 Not Reported 2.46 SE 2.91 SE 3.58 SE No 0.000 No Precipitation 04/16/2019 11:58 AM 04/16/2019 12:03 PM 0.000 0.000 0.000 0.000 0.000 Not Reported Not Reported
04/18/2019 08:24 PM 66.74 56.66 49.28 80.60 39.74 53.0 Not Reported 3.36 SE 3.13 SE 3.80 SE No 0.000 No Precipitation 04/16/2019 11:58 AM 04/16/2019 12:03 PM 0.000 0.000 0.000 0.000 0.000 Not Reported Not Reported
04/18/2019 08:39 PM 65.12 55.94 48.92 80.60 39.74 55.0 Not Reported 3.13 SE 3.36 SE 3.58 E No 0.000 No Precipitation 04/16/2019 11:58 AM 04/16/2019 12:03 PM 0.000 0.000 0.000 0.000 0.000 Not Reported Not Reported
04/18/2019 08:54 PM 64.04 55.40 48.92 80.60 39.74 57.0 Not Reported 3.36 SE 3.36 SE 4.03 SE No 0.000 No Precipitation 04/16/2019 11:58 AM 04/16/2019 12:03 PM 0.000 0.000 0.000 0.000 0.000 Not Reported Not Reported
04/18/2019 09:09 PM 62.42 55.22 49.64 80.60 39.74 62.0 Not Reported 1.79 SE 2.24 SE 3.80 SE No 0.000 No Precipitation 04/16/2019 11:58 AM 04/16/2019 12:03 PM 0.000 0.000 0.000 0.000 0.000 Not Reported Not Reported
04/18/2019 09:24 PM 60.80 54.68 50.18 80.60 39.74 67.0 Not Reported 0.67 SE 0.89 SE 1.57 SE No 0.000 No Precipitation 04/16/2019 11:58 AM 04/16/2019 12:03 PM 0.000 0.000 0.000 0.000 0.000 Not Reported Not Reported
04/18/2019 09:39 PM 59.72 54.14 50.00 80.60 39.74 69.0 Not Reported 1.57 SE 1.79 SE 2.01 SE No 0.000 No Precipitation 04/16/2019 11:58 AM 04/16/2019 12:03 PM 0.000 0.000 0.000 0.000 0.000 Not Reported Not Reported
04/18/2019 09:54 PM 58.82 53.78 50.00 80.60 39.74 72.0 Not Reported 1.12 SE 1.79 SE 2.46 SE No 0.000 No Precipitation 04/16/2019 11:58 AM 04/16/2019 12:03 PM 0.000 0.000 0.000 0.000 0.000 Not Reported Not Reported
04/18/2019 10:09 PM 58.28 53.42 49.82 80.60 39.74 73.0 Not Reported 0.67 SE 0.00 SE 2.91 SE No 0.000 No Precipitation 04/16/2019 11:58 AM 04/16/2019 12:03 PM 0.000 0.000 0.000 0.000 0.000 Not Reported Not Reported
04/18/2019 10:24 PM 57.38 52.88 49.28 80.60 39.74 74.0 Not Reported 0.00 E 0.00 E 0.67 NE No 0.000 No Precipitation 04/16/2019 11:58 AM 04/16/2019 12:03 PM 0.000 0.000 0.000 0.000 0.000 Not Reported Not Reported
04/18/2019 10:39 PM 56.48 52.52 49.46 80.60 39.74 77.0 Not Reported 0.22 SE 0.22 S 1.34 SE No 0.000 No Precipitation 04/16/2019 11:58 AM 04/16/2019 12:03 PM 0.000 0.000 0.000 0.000 0.000 Not Reported Not Reported
04/18/2019 10:54 PM 55.58 52.16 49.28 80.60 39.74 79.0 Not Reported 0.45 SE 1.12 SE 1.12 SE No 0.000 No Precipitation 04/16/2019 11:58 AM 04/16/2019 12:03 PM 0.000 0.000 0.000 0.000 0.000 Not Reported Not Reported
04/18/2019 11:09 PM 55.04 51.80 49.28 80.60 39.74 80.0 Not Reported 0.67 S 0.89 SE 2.24 SE No 0.000 No Precipitation 04/16/2019 11:58 AM 04/16/2019 12:03 PM 0.000 0.000 0.000 0.000 0.000 Not Reported Not Reported
04/18/2019 11:24 PM 54.50 51.62 49.10 80.60 39.74 81.0 Not Reported 0.67 SE 0.67 SE 1.34 S No 0.000 No Precipitation 04/16/2019 11:58 AM 04/16/2019 12:03 PM 0.000 0.000 0.000 0.000 0.000 Not Reported Not Reported
04/18/2019 11:39 PM 53.60 50.90 48.56 80.60 39.74 83.0 Not Reported 0.00 N 0.00 SE 1.79 SE No 0.000 No Precipitation 04/16/2019 11:58 AM 04/16/2019 12:03 PM 0.000 0.000 0.000 0.000 0.000 Not Reported Not Reported
04/18/2019 11:54 PM 53.42 50.72 48.38 80.60 39.74 83.0 Not Reported 2.24 SE 1.79 E 1.79 SE No 0.000 No Precipitation 04/16/2019 11:58 AM 04/16/2019 12:03 PM 0.000 0.000 0.000 0.000 0.000 Not Reported Not Reported